Terminal Aerodrome Forecast
Issued by NWS Jacksonville, FL

Home | Current Version | Previous Version | Text Only | Print | Product List | Glossary On
Versions: 1 2 3 4 5 6 7 8 9 10 11 12 13 14 15 16 17 18 19 20
000
FTUS42 KJAX 230300 AAA
TAFSSI
TAF AMD
KSSI 230313Z 2303/2324 03010G15KT P6SM VCTS SCT020 OVC040CB
      TEMPO 2303/2305 VRB20G30KT 1SM TSRA BKN010CB OVC020
     FM231300 06009KT P6SM VCSH BKN030 BKN100=

USA.gov is the U.S. government's official web portal to all federal, state and local government web resources and services.